createdAt,value
2022-11-29T00:02:20.016Z,1003.70
2022-11-29T00:04:52.994Z,1003.70
2022-11-29T00:07:25.933Z,1003.69
2022-11-29T00:09:58.907Z,1003.71
2022-11-29T00:12:45.928Z,1003.71
2022-11-29T00:15:18.990Z,1003.73
2022-11-29T00:17:51.935Z,1003.73
2022-11-29T00:20:24.894Z,1003.72
2022-11-29T00:22:57.930Z,1003.72
2022-11-29T00:25:30.922Z,1003.71
2022-11-29T00:28:04.003Z,1003.70
2022-11-29T00:30:36.649Z,1003.70
2022-11-29T00:33:09.869Z,1003.68
2022-11-29T00:35:42.951Z,1003.68
2022-11-29T00:38:15.892Z,1003.67
2022-11-29T00:40:48.919Z,1003.68
2022-11-29T00:43:21.987Z,1003.70
2022-11-29T00:45:55.053Z,1003.70
2022-11-29T00:48:27.995Z,1003.70
2022-11-29T00:51:00.960Z,1003.71
2022-11-29T00:53:34.017Z,1003.72
2022-11-29T00:56:07.042Z,1003.72
2022-11-29T00:58:39.990Z,1003.72
2022-11-29T01:01:13.074Z,1003.71
2022-11-29T01:03:46.034Z,1003.71
2022-11-29T01:06:19.072Z,1003.72
2022-11-29T01:08:51.998Z,1003.73
2022-11-29T01:11:25.093Z,1003.75
2022-11-29T01:13:58.019Z,1003.77
2022-11-29T01:16:31.203Z,1003.77
2022-11-29T01:19:03.992Z,1003.78
2022-11-29T01:21:37.108Z,1003.78
2022-11-29T01:24:10.047Z,1003.79
2022-11-29T01:26:42.973Z,1003.80
2022-11-29T01:29:15.951Z,1003.81
2022-11-29T01:31:49.013Z,1003.83
2022-11-29T01:34:22.067Z,1003.85
2022-11-29T01:36:55.027Z,1003.87
2022-11-29T01:39:28.092Z,1003.89
2022-11-29T01:42:01.069Z,1003.89
2022-11-29T01:44:33.970Z,1003.89
2022-11-29T01:47:07.068Z,1003.90
2022-11-29T01:49:40.106Z,1003.91
2022-11-29T01:52:13.036Z,1003.93
2022-11-29T01:54:46.334Z,1003.94
2022-11-29T01:57:19.153Z,1003.95
2022-11-29T01:59:52.117Z,1003.96
2022-11-29T02:02:25.205Z,1003.95
2022-11-29T02:04:58.162Z,1003.95
2022-11-29T02:07:31.221Z,1003.97
2022-11-29T02:10:04.042Z,1003.97
2022-11-29T02:12:37.144Z,1003.96
2022-11-29T02:15:10.087Z,1003.96
2022-11-29T02:17:43.183Z,1003.95
2022-11-29T02:20:16.047Z,1003.96
2022-11-29T02:22:49.217Z,1003.97
2022-11-29T02:25:22.149Z,1003.97
2022-11-29T02:27:55.111Z,1003.99
2022-11-29T02:30:28.134Z,1003.98
2022-11-29T02:33:00.953Z,1004.00
2022-11-29T02:35:34.199Z,1004.01
2022-11-29T02:38:07.198Z,1004.01
2022-11-29T02:40:39.948Z,1004.01
2022-11-29T02:43:13.111Z,1004.02
2022-11-29T02:45:46.313Z,1004.03
2022-11-29T02:48:19.146Z,1004.02
2022-11-29T02:50:52.168Z,1004.03
2022-11-29T02:53:25.135Z,1004.05
2022-11-29T02:55:58.174Z,1004.06
2022-11-29T02:58:31.206Z,1004.06
2022-11-29T03:01:04.334Z,1004.06
2022-11-29T03:03:37.139Z,1004.07
2022-11-29T03:06:09.923Z,1004.07
2022-11-29T03:08:43.290Z,1004.09
2022-11-29T03:11:16.222Z,1004.10
2022-11-29T03:13:49.251Z,1004.09
2022-11-29T03:16:22.159Z,1004.12
2022-11-29T03:18:55.185Z,1004.14
2022-11-29T03:21:28.197Z,1004.17
2022-11-29T03:24:01.311Z,1004.19
2022-11-29T03:26:34.232Z,1004.22
2022-11-29T03:29:07.184Z,1004.24
2022-11-29T03:31:40.228Z,1004.26
2022-11-29T03:34:13.249Z,1004.27
2022-11-29T03:36:46.225Z,1004.29
2022-11-29T03:39:19.331Z,1004.29
2022-11-29T03:41:52.256Z,1004.31
2022-11-29T03:44:25.312Z,1004.32
2022-11-29T03:46:58.240Z,1004.34
2022-11-29T03:49:31.316Z,1004.34
2022-11-29T03:52:04.294Z,1004.35
2022-11-29T03:54:37.245Z,1004.36
2022-11-29T03:57:10.253Z,1004.36
2022-11-29T03:59:43.291Z,1004.37
2022-11-29T04:02:16.377Z,1004.37
2022-11-29T04:04:49.278Z,1004.37
2022-11-29T04:07:22.390Z,1004.38
2022-11-29T04:09:55.320Z,1004.38
2022-11-29T04:12:28.332Z,1004.38
2022-11-29T04:15:01.255Z,1004.38
2022-11-29T04:17:34.324Z,1004.39
2022-11-29T04:20:07.270Z,1004.39
2022-11-29T04:22:40.237Z,1004.38
2022-11-29T04:25:13.329Z,1004.39
2022-11-29T04:27:46.327Z,1004.40
2022-11-29T04:30:19.270Z,1004.42
2022-11-29T04:32:52.374Z,1004.43
2022-11-29T04:35:25.337Z,1004.45
2022-11-29T04:37:58.258Z,1004.48
2022-11-29T04:40:31.334Z,1004.51
2022-11-29T04:43:04.269Z,1004.54
2022-11-29T04:45:37.437Z,1004.56
2022-11-29T04:48:10.300Z,1004.60
2022-11-29T04:50:43.181Z,1004.62
2022-11-29T04:53:16.318Z,1004.65
2022-11-29T04:55:49.486Z,1004.66
2022-11-29T04:58:22.330Z,1004.68
2022-11-29T05:00:55.408Z,1004.69
2022-11-29T05:03:28.356Z,1004.70
2022-11-29T05:06:01.446Z,1004.71
2022-11-29T05:08:34.300Z,1004.73
2022-11-29T05:11:07.464Z,1004.74
2022-11-29T05:13:40.450Z,1004.75
2022-11-29T05:16:13.410Z,1004.75
2022-11-29T05:18:48.368Z,1004.76
2022-11-29T05:21:21.449Z,1004.79
2022-11-29T05:23:54.049Z,1004.81
2022-11-29T05:26:27.156Z,1004.84
2022-11-29T05:29:00.411Z,1004.87
2022-11-29T05:31:33.516Z,1004.89
2022-11-29T05:34:06.344Z,1004.92
2022-11-29T05:36:39.359Z,1004.95
2022-11-29T05:39:12.370Z,1004.96
2022-11-29T05:41:45.523Z,1004.97
2022-11-29T05:44:18.370Z,1004.98
2022-11-29T05:46:51.422Z,1004.99
2022-11-29T05:49:24.095Z,1005.01
2022-11-29T05:51:57.407Z,1005.03
2022-11-29T05:54:30.462Z,1005.04
2022-11-29T05:57:03.484Z,1005.06
2022-11-29T05:59:36.271Z,1005.08
2022-11-29T06:02:09.544Z,1005.10
2022-11-29T06:04:42.372Z,1005.11
2022-11-29T06:07:15.571Z,1005.13
2022-11-29T06:09:48.392Z,1005.15
2022-11-29T06:12:21.595Z,1005.17
2022-11-29T06:14:54.425Z,1005.20
2022-11-29T06:17:27.279Z,1005.22
2022-11-29T06:20:00.314Z,1005.26
2022-11-29T06:22:33.514Z,1005.29
2022-11-29T06:25:06.429Z,1005.33
2022-11-29T06:27:39.385Z,1005.37
2022-11-29T06:30:12.465Z,1005.40
2022-11-29T06:32:45.204Z,1005.44
2022-11-29T06:35:18.234Z,1005.46
2022-11-29T06:37:51.450Z,1005.48
2022-11-29T06:40:24.270Z,1005.50
2022-11-29T06:42:57.230Z,1005.53
2022-11-29T06:45:30.288Z,1005.56
2022-11-29T06:48:03.198Z,1005.59
2022-11-29T06:50:36.443Z,1005.61
2022-11-29T06:53:09.214Z,1005.63
2022-11-29T06:55:42.304Z,1005.66
2022-11-29T06:58:15.260Z,1005.68
2022-11-29T07:00:48.337Z,1005.70
2022-11-29T07:03:21.450Z,1005.71
2022-11-29T07:05:54.591Z,1005.74
2022-11-29T07:08:27.344Z,1005.76
2022-11-29T07:11:00.522Z,1005.79
2022-11-29T07:13:33.613Z,1005.82
2022-11-29T07:16:06.588Z,1005.85
2022-11-29T07:18:39.601Z,1005.89
2022-11-29T07:21:12.249Z,1005.90
2022-11-29T07:23:45.261Z,1005.92
2022-11-29T07:26:18.262Z,1005.94
2022-11-29T07:28:51.496Z,1005.96
2022-11-29T07:31:24.435Z,1005.98
2022-11-29T07:33:57.277Z,1005.99
2022-11-29T07:36:30.486Z,1006.01
2022-11-29T07:39:03.298Z,1006.03
2022-11-29T07:41:36.359Z,1006.05
2022-11-29T07:44:09.320Z,1006.08
2022-11-29T07:46:42.380Z,1006.11
2022-11-29T07:49:15.291Z,1006.12
2022-11-29T07:51:48.653Z,1006.14
2022-11-29T07:54:22.199Z,1006.16
2022-11-29T07:56:54.480Z,1006.17
2022-11-29T07:59:27.611Z,1006.19
2022-11-29T08:02:00.705Z,1006.22
2022-11-29T08:04:33.711Z,1006.23
2022-11-29T08:07:06.603Z,1006.25
2022-11-29T08:09:39.492Z,1006.26
2022-11-29T08:12:12.584Z,1006.27
2022-11-29T08:14:45.782Z,1006.27
2022-11-29T08:17:18.382Z,1006.25
2022-11-29T08:19:51.697Z,1006.28
2022-11-29T08:22:24.482Z,1006.30
2022-11-29T08:24:57.460Z,1006.31
2022-11-29T08:27:30.642Z,1006.34
2022-11-29T08:30:03.674Z,1006.34
2022-11-29T08:32:36.335Z,1006.35
2022-11-29T08:35:23.437Z,1006.38
2022-11-29T08:37:56.643Z,1006.38
2022-11-29T08:40:29.382Z,1006.41
2022-11-29T08:43:02.628Z,1006.43
2022-11-29T08:45:35.430Z,1006.45
2022-11-29T08:48:08.548Z,1006.48
2022-11-29T08:50:41.549Z,1006.52
2022-11-29T08:53:14.623Z,1006.54
2022-11-29T08:55:53.443Z,1006.55
2022-11-29T08:58:26.734Z,1006.57
2022-11-29T09:00:59.459Z,1006.61
2022-11-29T09:03:32.572Z,1006.62
2022-11-29T09:06:10.494Z,1006.67
2022-11-29T09:08:38.933Z,1006.70
2022-11-29T09:11:12.415Z,1006.74
2022-11-29T09:13:45.733Z,1006.77
2022-11-29T09:16:18.571Z,1006.79
2022-11-29T09:18:52.226Z,1006.81
2022-11-29T09:21:24.568Z,1006.83
2022-11-29T09:23:57.576Z,1006.86
2022-11-29T09:26:30.555Z,1006.88
2022-11-29T09:29:06.558Z,1006.90
2022-11-29T09:31:39.853Z,1006.93
2022-11-29T09:34:12.473Z,1006.95
2022-11-29T09:36:45.777Z,1006.96
2022-11-29T09:39:18.807Z,1006.98
2022-11-29T09:41:51.872Z,1007.01
2022-11-29T09:44:24.797Z,1007.03
2022-11-29T09:46:58.906Z,1007.07
2022-11-29T09:49:30.637Z,1007.09
2022-11-29T09:52:03.615Z,1007.10
2022-11-29T09:54:36.873Z,1007.13
2022-11-29T09:57:11.058Z,1007.14
2022-11-29T09:59:42.904Z,1007.15
2022-11-29T10:02:20.896Z,1007.15
2022-11-29T10:04:48.802Z,1007.17
2022-11-29T10:07:21.995Z,1007.18
2022-11-29T10:09:54.849Z,1007.18
2022-11-29T10:12:27.882Z,1007.18
2022-11-29T10:15:00.853Z,1007.19
2022-11-29T10:17:33.938Z,1007.19
2022-11-29T10:20:06.862Z,1007.20
2022-11-29T10:22:39.849Z,1007.20
2022-11-29T10:25:12.857Z,1007.19
2022-11-29T10:27:45.908Z,1007.18
2022-11-29T10:30:18.840Z,1007.18
2022-11-29T10:32:51.943Z,1007.16
2022-11-29T10:35:24.835Z,1007.16
2022-11-29T10:38:30.426Z,1007.16
2022-11-29T10:40:44.740Z,1007.17
2022-11-29T10:43:17.679Z,1007.16
2022-11-29T10:45:50.856Z,1007.15
2022-11-29T10:48:23.853Z,1007.14
2022-11-29T10:50:56.825Z,1007.15
2022-11-29T10:53:29.911Z,1007.14
2022-11-29T10:56:02.893Z,1007.16
2022-11-29T10:58:35.954Z,1007.16
2022-11-29T11:01:08.857Z,1007.16
2022-11-29T11:03:41.773Z,1007.16
2022-11-29T11:06:14.757Z,1007.16
2022-11-29T11:08:47.854Z,1007.16
2022-11-29T11:11:20.981Z,1007.17
2022-11-29T11:13:59.833Z,1007.18
2022-11-29T11:16:37.360Z,1007.16
2022-11-29T11:19:05.963Z,1007.16
2022-11-29T11:21:38.905Z,1007.15
2022-11-29T11:24:11.951Z,1007.16
2022-11-29T11:26:44.933Z,1007.14
2022-11-29T11:29:17.964Z,1007.14
2022-11-29T11:31:50.736Z,1007.15
2022-11-29T11:34:24.012Z,1007.15
2022-11-29T11:36:56.998Z,1007.16
2022-11-29T11:39:29.886Z,1007.17
2022-11-29T11:42:03.049Z,1007.18
2022-11-29T11:44:51.227Z,1007.20
2022-11-29T11:47:08.948Z,1007.22
2022-11-29T11:49:41.959Z,1007.23
2022-11-29T11:52:14.938Z,1007.25
2022-11-29T11:54:53.753Z,1007.27
2022-11-29T11:57:26.948Z,1007.29
2022-11-29T12:00:06.337Z,1007.30
2022-11-29T12:02:32.987Z,1007.31
2022-11-29T12:05:06.026Z,1007.32
2022-11-29T12:08:06.782Z,1007.33
2022-11-29T12:10:11.983Z,1007.33
2022-11-29T12:12:44.977Z,1007.34
2022-11-29T12:15:18.030Z,1007.33
2022-11-29T12:17:51.102Z,1007.34
2022-11-29T12:20:24.103Z,1007.33
2022-11-29T12:22:56.998Z,1007.33
2022-11-29T12:25:29.859Z,1007.34
2022-11-29T12:28:03.179Z,1007.36
2022-11-29T12:30:38.691Z,1007.37
2022-11-29T12:33:12.049Z,1007.37
2022-11-29T12:35:44.901Z,1007.38
2022-11-29T12:38:17.903Z,1007.39
2022-11-29T12:40:50.792Z,1007.39
2022-11-29T12:43:23.846Z,1007.40
2022-11-29T12:45:57.135Z,1007.40
2022-11-29T12:48:30.080Z,1007.42
2022-11-29T12:51:03.020Z,1007.44
2022-11-29T12:53:35.947Z,1007.46
2022-11-29T12:56:09.150Z,1007.45
2022-11-29T12:58:45.772Z,1007.45
2022-11-29T13:01:15.263Z,1007.44
2022-11-29T13:03:47.887Z,1007.44
2022-11-29T13:06:20.872Z,1007.44
2022-11-29T13:08:53.926Z,1007.45
2022-11-29T13:11:27.115Z,1007.46
2022-11-29T13:14:20.243Z,1007.47
2022-11-29T13:16:33.069Z,1007.48
2022-11-29T13:19:06.072Z,1007.51
2022-11-29T13:21:39.059Z,1007.54
2022-11-29T13:24:12.076Z,1007.55
2022-11-29T13:26:44.932Z,1007.57
2022-11-29T13:29:17.975Z,1007.59
2022-11-29T13:31:50.867Z,1007.60
2022-11-29T13:34:24.156Z,1007.62
2022-11-29T13:36:57.125Z,1007.64
2022-11-29T13:39:30.086Z,1007.62
2022-11-29T13:42:03.118Z,1007.63
2022-11-29T13:44:36.169Z,1007.62
2022-11-29T13:47:09.165Z,1007.62
2022-11-29T13:49:42.116Z,1007.61
2022-11-29T13:52:15.241Z,1007.61
2022-11-29T13:54:48.041Z,1007.60
2022-11-29T13:57:21.017Z,1007.60
2022-11-29T13:59:53.876Z,1007.60
2022-11-29T14:02:26.904Z,1007.61
2022-11-29T14:05:00.194Z,1007.62
2022-11-29T14:07:33.297Z,1007.63
2022-11-29T14:10:06.384Z,1007.66
2022-11-29T14:12:39.129Z,1007.67
2022-11-29T14:15:12.191Z,1007.68
2022-11-29T14:17:45.130Z,1007.70
2022-11-29T14:20:17.939Z,1007.73
2022-11-29T14:22:51.187Z,1007.74
2022-11-29T14:25:52.697Z,1007.77
2022-11-29T14:27:57.286Z,1007.80
2022-11-29T14:30:30.188Z,1007.81
2022-11-29T14:33:03.258Z,1007.83
2022-11-29T14:35:36.245Z,1007.84
2022-11-29T14:38:09.197Z,1007.87
2022-11-29T14:40:41.959Z,1007.89
2022-11-29T14:43:15.272Z,1007.92
2022-11-29T14:45:48.236Z,1007.94
2022-11-29T14:48:21.394Z,1007.97
2022-11-29T14:50:55.214Z,1007.99
2022-11-29T14:53:28.306Z,1008.00
2022-11-29T14:56:01.312Z,1008.02
2022-11-29T14:58:34.301Z,1008.03
2022-11-29T15:01:10.787Z,1008.04
2022-11-29T15:03:40.288Z,1008.05
2022-11-29T15:06:27.251Z,1008.07
2022-11-29T15:09:00.344Z,1008.09
2022-11-29T15:11:33.360Z,1008.11
2022-11-29T15:14:06.324Z,1008.12
2022-11-29T15:16:39.268Z,1008.15
2022-11-29T15:19:12.239Z,1008.17
2022-11-29T15:21:45.032Z,1008.17
2022-11-29T15:24:18.158Z,1008.20
2022-11-29T15:26:51.335Z,1008.22
2022-11-29T15:29:24.332Z,1008.23
2022-11-29T15:31:57.188Z,1008.25
2022-11-29T15:34:30.097Z,1008.26
2022-11-29T15:37:03.313Z,1008.26
2022-11-29T15:39:36.101Z,1008.27
2022-11-29T15:42:09.321Z,1008.28
2022-11-29T15:44:42.184Z,1008.30
2022-11-29T15:47:15.030Z,1008.31
2022-11-29T15:49:48.424Z,1008.34
2022-11-29T15:52:21.381Z,1008.37
2022-11-29T15:54:54.256Z,1008.39
2022-11-29T15:57:27.356Z,1008.41
2022-11-29T16:00:00.431Z,1008.43
2022-11-29T16:02:33.268Z,1008.46
2022-11-29T16:05:06.234Z,1008.46
2022-11-29T16:07:39.234Z,1008.49
2022-11-29T16:10:12.367Z,1008.51
2022-11-29T16:12:45.066Z,1008.53
2022-11-29T16:15:18.078Z,1008.54
2022-11-29T16:17:51.092Z,1008.55
2022-11-29T16:20:24.085Z,1008.55
2022-11-29T16:22:57.193Z,1008.55
2022-11-29T16:25:34.673Z,1008.56
2022-11-29T16:28:03.225Z,1008.57
2022-11-29T16:30:36.095Z,1008.58
2022-11-29T16:33:09.321Z,1008.59
2022-11-29T16:35:42.359Z,1008.59
2022-11-29T16:38:15.093Z,1008.62
2022-11-29T16:40:48.266Z,1008.63
2022-11-29T16:43:21.415Z,1008.65
2022-11-29T16:45:54.473Z,1008.66
2022-11-29T16:48:27.279Z,1008.68
2022-11-29T16:51:00.383Z,1008.68
2022-11-29T16:53:33.402Z,1008.70
2022-11-29T16:56:06.466Z,1008.72
2022-11-29T16:59:16.928Z,1008.74
2022-11-29T17:01:12.490Z,1008.76
2022-11-29T17:03:45.421Z,1008.77
2022-11-29T17:06:18.440Z,1008.77
2022-11-29T17:08:51.397Z,1008.78
2022-11-29T17:11:24.421Z,1008.77
2022-11-29T17:13:57.283Z,1008.78
2022-11-29T17:16:30.268Z,1008.77
2022-11-29T17:19:03.544Z,1008.76
2022-11-29T17:21:36.165Z,1008.77
2022-11-29T17:24:09.391Z,1008.78
2022-11-29T17:26:42.234Z,1008.79
2022-11-29T17:29:15.191Z,1008.81
2022-11-29T17:31:48.215Z,1008.82
2022-11-29T17:34:21.362Z,1008.84
2022-11-29T17:36:54.219Z,1008.84
2022-11-29T17:39:27.537Z,1008.85
2022-11-29T17:42:00.249Z,1008.85
2022-11-29T17:44:33.585Z,1008.87
2022-11-29T17:47:06.400Z,1008.89
2022-11-29T17:49:40.345Z,1008.91
2022-11-29T17:52:13.405Z,1008.93
2022-11-29T17:54:46.340Z,1008.93
2022-11-29T17:57:19.411Z,1008.94
2022-11-29T17:59:52.375Z,1008.96
2022-11-29T18:02:39.161Z,1008.98
2022-11-29T18:05:12.242Z,1009.00
2022-11-29T18:07:46.714Z,1009.03
2022-11-29T18:10:19.579Z,1009.05
2022-11-29T18:12:52.277Z,1009.05
2022-11-29T18:15:25.586Z,1009.07
2022-11-29T18:17:58.522Z,1009.08
2022-11-29T18:20:31.788Z,1009.11
2022-11-29T18:23:08.578Z,1009.14
2022-11-29T18:25:41.522Z,1009.17
2022-11-29T18:28:14.592Z,1009.18
2022-11-29T18:30:47.473Z,1009.21
2022-11-29T18:33:20.612Z,1009.23
2022-11-29T18:35:53.533Z,1009.24
2022-11-29T18:38:26.301Z,1009.25
2022-11-29T18:41:13.411Z,1009.28
2022-11-29T18:43:46.656Z,1009.30
2022-11-29T18:46:19.840Z,1009.33
2022-11-29T18:48:52.404Z,1009.36
2022-11-29T18:51:25.354Z,1009.37
2022-11-29T18:53:58.402Z,1009.39
2022-11-29T18:56:31.462Z,1009.39
2022-11-29T18:59:04.510Z,1009.40
2022-11-29T19:01:37.376Z,1009.40
2022-11-29T19:04:10.341Z,1009.40
2022-11-29T19:06:43.400Z,1009.41
2022-11-29T19:09:16.618Z,1009.42
2022-11-29T19:11:49.362Z,1009.44
2022-11-29T19:14:22.739Z,1009.45
2022-11-29T19:16:55.662Z,1009.46
2022-11-29T19:19:28.616Z,1009.48
2022-11-29T19:22:01.757Z,1009.48
2022-11-29T19:24:34.513Z,1009.51
2022-11-29T19:27:07.666Z,1009.52
2022-11-29T19:29:40.387Z,1009.54
2022-11-29T19:32:13.391Z,1009.53
2022-11-29T19:34:46.649Z,1009.54
2022-11-29T19:37:19.366Z,1009.55
2022-11-29T19:39:52.548Z,1009.55
2022-11-29T19:42:25.393Z,1009.54
2022-11-29T19:45:16.661Z,1009.55
2022-11-29T19:47:31.643Z,1009.56
2022-11-29T19:50:04.540Z,1009.57
2022-11-29T19:52:37.729Z,1009.57
2022-11-29T19:55:10.645Z,1009.58
2022-11-29T19:57:43.583Z,1009.57
2022-11-29T20:00:16.710Z,1009.57
2022-11-29T20:02:50.553Z,1009.57
2022-11-29T20:05:23.753Z,1009.59
2022-11-29T20:07:56.794Z,1009.60
2022-11-29T20:10:43.361Z,1009.61
2022-11-29T20:13:16.680Z,1009.59
2022-11-29T20:15:49.713Z,1009.61
2022-11-29T20:18:22.813Z,1009.62
2022-11-29T20:20:55.760Z,1009.63
2022-11-29T20:23:28.816Z,1009.64
2022-11-29T20:26:01.772Z,1009.67
2022-11-29T20:28:34.762Z,1009.69
2022-11-29T20:31:07.954Z,1009.71
2022-11-29T20:33:40.512Z,1009.72
2022-11-29T20:36:13.876Z,1009.73
2022-11-29T20:38:46.722Z,1009.75
2022-11-29T20:41:19.637Z,1009.77
2022-11-29T20:43:52.849Z,1009.78
2022-11-29T20:46:25.588Z,1009.81
2022-11-29T20:49:06.321Z,1009.83
2022-11-29T20:51:35.495Z,1009.84
2022-11-29T20:54:08.495Z,1009.84
2022-11-29T20:56:41.593Z,1009.83
2022-11-29T20:59:14.554Z,1009.84
2022-11-29T21:01:47.973Z,1009.85
2022-11-29T21:04:23.514Z,1009.86
2022-11-29T21:06:53.756Z,1009.89
2022-11-29T21:09:28.595Z,1009.87
2022-11-29T21:12:00.953Z,1009.88
2022-11-29T21:14:34.892Z,1009.88
2022-11-29T21:17:07.797Z,1009.88
2022-11-29T21:19:54.687Z,1009.88
2022-11-29T21:22:27.559Z,1009.87
2022-11-29T21:25:00.697Z,1009.87
2022-11-29T21:27:33.533Z,1009.86
2022-11-29T21:30:06.709Z,1009.88
2022-11-29T21:32:39.897Z,1009.89
2022-11-29T21:35:12.563Z,1009.89
2022-11-29T21:37:59.609Z,1009.92
2022-11-29T21:40:32.704Z,1009.94
2022-11-29T21:43:05.771Z,1009.96
2022-11-29T21:45:38.701Z,1009.99
2022-11-29T21:48:11.667Z,1009.99
2022-11-29T21:50:44.564Z,1010.00
2022-11-29T21:53:17.678Z,1010.02
2022-11-29T21:55:51.820Z,1010.02
2022-11-29T21:58:24.580Z,1010.03
2022-11-29T22:00:57.889Z,1010.04
2022-11-29T22:03:30.654Z,1010.06
2022-11-29T22:06:03.746Z,1010.09
2022-11-29T22:08:36.684Z,1010.11
2022-11-29T22:11:09.620Z,1010.14
2022-11-29T22:13:42.729Z,1010.15
2022-11-29T22:16:16.081Z,1010.16
2022-11-29T22:18:48.919Z,1010.18
2022-11-29T22:21:21.785Z,1010.19
2022-11-29T22:23:54.977Z,1010.20
2022-11-29T22:26:27.926Z,1010.21
2022-11-29T22:29:00.971Z,1010.22
2022-11-29T22:31:34.028Z,1010.23
2022-11-29T22:34:07.028Z,1010.23
2022-11-29T22:36:39.997Z,1010.23
2022-11-29T22:39:12.900Z,1010.24
2022-11-29T22:41:50.681Z,1010.25
2022-11-29T22:44:19.000Z,1010.24
2022-11-29T22:46:52.013Z,1010.21
2022-11-29T22:49:25.057Z,1010.22
2022-11-29T22:51:58.002Z,1010.22
2022-11-29T22:54:31.010Z,1010.21
2022-11-29T22:57:03.989Z,1010.22
2022-11-29T22:59:36.972Z,1010.22
2022-11-29T23:02:10.071Z,1010.22
2022-11-29T23:04:42.995Z,1010.23
2022-11-29T23:07:15.955Z,1010.20
2022-11-29T23:09:48.974Z,1010.21
2022-11-29T23:12:22.059Z,1010.20
2022-11-29T23:14:56.829Z,1010.19
2022-11-29T23:17:27.973Z,1010.19
2022-11-29T23:20:01.080Z,1010.21
2022-11-29T23:22:34.052Z,1010.23
2022-11-29T23:25:07.060Z,1010.24
2022-11-29T23:27:40.103Z,1010.26
2022-11-29T23:30:12.992Z,1010.28
2022-11-29T23:32:46.093Z,1010.29
2022-11-29T23:35:19.037Z,1010.29
2022-11-29T23:37:52.126Z,1010.29
2022-11-29T23:40:25.085Z,1010.28
2022-11-29T23:42:58.036Z,1010.26
2022-11-29T23:45:31.205Z,1010.26
2022-11-29T23:48:04.089Z,1010.24
2022-11-29T23:50:37.138Z,1010.24
2022-11-29T23:53:10.058Z,1010.22
2022-11-29T23:55:43.110Z,1010.21
2022-11-29T23:58:16.038Z,1010.21
